ESDF/RNB METAR and TAF weather

Enter ICAO airport designator
Station Type Date Time Source
ESDF METAR 2020/04/09 19:50 UTC NOAA

ESDF 091950Z 30008KT CAVOK 07/M02 Q1022


Station Type Date Time Source
ESDF Decoded METAR 2020/04/09 19:50 UTC NOAA

Ronneby, Sweden (ESDF) 56-16N 015-17E 74M
Apr 09, 2020 - 03:50 PM EDT / 2020.04.09 1950 UTC
Wind: from the WNW (300 degrees) at 9 MPH (8 KT):0
Visibility: greater than 7 mile(s):0
Temperature: 44 F (7 C)
Dew Point: 28 F (-2 C)
Relative Humidity: 52%
Pressure (altimeter): 30.18 in. Hg (1022 hPa)
ob: ESDF 091950Z 30008KT CAVOK 07/M02 Q1022
cycle: 20

Station Type Date Time Source
ESDF TAF 2018/05/29 12:27 UTC NOAA

TAF TAF ESDF 291425Z 2912/2924 07008KT CAVOK
RMK MIL

Example: see airport list